createdAt,value
2022-09-26T00:01:20.642Z,100665.28
2022-09-26T00:03:50.696Z,100655.78
2022-09-26T00:06:18.311Z,100651.41
2022-09-26T00:08:46.631Z,100645.47
2022-09-26T00:11:17.454Z,100644.28
2022-09-26T00:13:44.268Z,100632.41
2022-09-26T00:16:13.068Z,100621.72
2022-09-26T00:18:40.244Z,100624.09
2022-09-26T00:21:13.219Z,100613.41
2022-09-26T00:23:41.979Z,100600.31
2022-09-26T00:26:09.589Z,100592.81
2022-09-26T00:28:36.499Z,100586.88
2022-09-26T00:31:09.379Z,100576.59
2022-09-26T00:33:36.230Z,100574.22
2022-09-26T00:36:06.665Z,100569.09
2022-09-26T00:38:33.963Z,100564.34
2022-09-26T00:41:01.939Z,100552.44
2022-09-26T00:43:44.039Z,100550.47
2022-09-26T00:46:27.431Z,100542.19
2022-09-26T00:49:19.102Z,100547.34
2022-09-26T00:51:53.192Z,100538.66
2022-09-26T00:54:20.370Z,100534.72
2022-09-26T00:56:50.888Z,100525.97
2022-09-26T00:59:33.022Z,100520.44
2022-09-26T01:02:02.145Z,100523.63
2022-09-26T01:04:32.747Z,100517.69
2022-09-26T01:07:06.246Z,100509.41
2022-09-26T01:09:33.311Z,100508.59
2022-09-26T01:12:03.330Z,100496.72
2022-09-26T01:14:32.133Z,100504.63
2022-09-26T01:16:59.473Z,100492.75
2022-09-26T01:20:06.162Z,100484.03
2022-09-26T01:22:51.338Z,100487.16
2022-09-26T01:25:32.632Z,100482.00
2022-09-26T01:28:26.822Z,100480.00
2022-09-26T01:31:02.334Z,100472.09
2022-09-26T01:33:41.700Z,100468.09
2022-09-26T01:36:11.408Z,100466.91
2022-09-26T01:39:09.874Z,100457.81
2022-09-26T01:41:55.144Z,100453.06
2022-09-26T01:44:51.864Z,100450.69
2022-09-26T01:47:40.874Z,100454.25
2022-09-26T01:50:25.942Z,100443.97
2022-09-26T01:53:25.106Z,100447.50
2022-09-26T01:56:05.484Z,100445.94
2022-09-26T01:58:38.140Z,100438.41
2022-09-26T02:01:11.028Z,100438.81
2022-09-26T02:03:45.641Z,100426.13
2022-09-26T02:06:37.376Z,100417.44
2022-09-26T02:09:27.946Z,100412.69
2022-09-26T02:12:01.831Z,100405.53
2022-09-26T02:14:35.835Z,100403.97
2022-09-26T02:17:10.975Z,100396.81
2022-09-26T02:19:43.703Z,100391.28
2022-09-26T02:22:10.499Z,100377.41
2022-09-26T02:24:38.882Z,100368.31
2022-09-26T02:27:06.837Z,100367.91
2022-09-26T02:29:34.312Z,100351.28
2022-09-26T02:32:13.015Z,100351.28
2022-09-26T02:34:42.147Z,100339.03
2022-09-26T02:37:10.304Z,100325.56
2022-09-26T02:39:37.670Z,100328.31
2022-09-26T02:42:44.508Z,100316.47
2022-09-26T02:45:59.102Z,100315.28
2022-09-26T02:48:38.827Z,100305.00
2022-09-26T02:51:39.976Z,100301.03
2022-09-26T02:54:21.597Z,100302.63
2022-09-26T02:57:22.653Z,100301.81
2022-09-26T02:59:57.683Z,100294.28
2022-09-26T03:02:39.238Z,100295.47
2022-09-26T03:05:29.314Z,100285.59
2022-09-26T03:08:09.484Z,100279.63
2022-09-26T03:10:38.094Z,100257.47
2022-09-26T03:13:12.094Z,100256.28
2022-09-26T03:15:42.040Z,100253.13
2022-09-26T03:18:14.563Z,100240.47
2022-09-26T03:20:41.639Z,100238.09
2022-09-26T03:23:08.914Z,100229.00
2022-09-26T03:25:36.242Z,100228.59
2022-09-26T03:28:05.802Z,100226.63
2022-09-26T03:30:33.561Z,100217.16
2022-09-26T03:33:19.166Z,100216.38
2022-09-26T03:35:47.041Z,100208.06
2022-09-26T03:38:14.730Z,100198.94
2022-09-26T03:40:48.606Z,100202.09
2022-09-26T03:43:34.150Z,100192.25
2022-09-26T03:46:06.339Z,100176.41
2022-09-26T03:48:34.652Z,100174.00
2022-09-26T03:51:09.919Z,100165.72
2022-09-26T03:53:39.869Z,100168.47
2022-09-26T03:56:15.133Z,100156.63
2022-09-26T03:58:43.581Z,100146.31
2022-09-26T04:01:19.533Z,100146.75
2022-09-26T04:03:50.581Z,100138.44
2022-09-26T04:06:22.038Z,100132.88
2022-09-26T04:08:52.285Z,100134.06
2022-09-26T04:11:22.050Z,100127.72
2022-09-26T04:13:52.802Z,100121.44
2022-09-26T04:16:23.993Z,100114.69
2022-09-26T04:18:57.574Z,100112.69
2022-09-26T04:21:28.665Z,100109.56
2022-09-26T04:23:56.277Z,100102.44
2022-09-26T04:26:24.815Z,100100.81
2022-09-26T04:28:54.958Z,100095.72
2022-09-26T04:31:24.980Z,100081.03
2022-09-26T04:33:58.526Z,100073.53
2022-09-26T04:36:25.366Z,100066.81
2022-09-26T04:38:52.205Z,100057.69
2022-09-26T04:41:21.982Z,100059.28
2022-09-26T04:43:49.767Z,100051.41
2022-09-26T04:46:26.876Z,100051.78
2022-09-26T04:48:58.559Z,100044.28
2022-09-26T04:51:28.253Z,100032.03
2022-09-26T04:53:55.762Z,100039.94
2022-09-26T04:56:27.089Z,100029.66
2022-09-26T04:58:56.670Z,100024.91
2022-09-26T05:01:27.152Z,100020.97
2022-09-26T05:04:09.986Z,100010.28
2022-09-26T05:06:37.123Z,100007.13
2022-09-26T05:09:06.054Z,100006.72
2022-09-26T05:11:57.401Z,99998.81
2022-09-26T05:14:25.039Z,99996.44
2022-09-26T05:16:51.971Z,99983.41
2022-09-26T05:19:19.149Z,99983.78
2022-09-26T05:22:04.674Z,99983.41
2022-09-26T05:24:50.857Z,99974.72
2022-09-26T05:27:19.238Z,99965.63
2022-09-26T05:29:46.175Z,99960.88
2022-09-26T05:32:14.046Z,99961.66
2022-09-26T05:34:41.263Z,99960.88
2022-09-26T05:37:11.901Z,99956.94
2022-09-26T05:39:57.710Z,99952.16
2022-09-26T05:42:24.735Z,99946.22
2022-09-26T05:44:53.184Z,99943.50
2022-09-26T05:47:21.895Z,99935.56
2022-09-26T05:49:48.986Z,99936.38
2022-09-26T05:52:19.009Z,99930.44
2022-09-26T05:54:46.377Z,99917.78
2022-09-26T05:57:52.948Z,99916.63
2022-09-26T06:00:22.190Z,99905.94
2022-09-26T06:02:58.364Z,99915.03
2022-09-26T06:05:42.530Z,99912.25
2022-09-26T06:08:17.430Z,99901.19
2022-09-26T06:11:10.466Z,99901.56
2022-09-26T06:13:37.477Z,99902.78
2022-09-26T06:16:07.287Z,99905.53
2022-09-26T06:18:38.664Z,99892.09
2022-09-26T06:21:07.667Z,99900.78
2022-09-26T06:23:34.773Z,99888.91
2022-09-26T06:26:05.665Z,99892.09
2022-09-26T06:28:32.634Z,99891.69
2022-09-26T06:30:59.419Z,99895.25
2022-09-26T06:33:48.945Z,99883.78
2022-09-26T06:36:25.112Z,99886.56
2022-09-26T06:38:54.278Z,99877.47
2022-09-26T06:41:21.706Z,99885.75
2022-09-26T06:43:49.138Z,99875.47
2022-09-26T06:46:33.811Z,99866.00
2022-09-26T06:49:13.013Z,99866.00
2022-09-26T06:51:42.956Z,99859.28
2022-09-26T06:54:10.501Z,99860.47
2022-09-26T06:56:37.593Z,99850.19
2022-09-26T06:59:06.002Z,99838.31
2022-09-26T07:01:35.129Z,99843.47
2022-09-26T07:04:36.111Z,99838.31
2022-09-26T07:07:25.776Z,99845.00
2022-09-26T07:09:54.580Z,99830.41
2022-09-26T07:12:47.158Z,99822.91
2022-09-26T07:15:18.427Z,99822.50
2022-09-26T07:17:48.036Z,99817.72
2022-09-26T07:20:40.372Z,99811.72
2022-09-26T07:23:25.643Z,99798.66
2022-09-26T07:25:53.330Z,99799.41
2022-09-26T07:28:20.159Z,99798.31
2022-09-26T07:30:49.047Z,99798.69
2022-09-26T07:33:31.650Z,99790.81
2022-09-26T07:36:05.458Z,99790.81
2022-09-26T07:38:32.954Z,99789.22
2022-09-26T07:41:01.205Z,99766.63
2022-09-26T07:44:19.279Z,99783.56
2022-09-26T07:46:37.756Z,99766.50
2022-09-26T07:49:23.000Z,99763.22
2022-09-26T07:52:08.783Z,99757.19
2022-09-26T07:54:50.443Z,99751.25
2022-09-26T07:57:49.656Z,99750.44
2022-09-26T08:00:34.401Z,99738.63
2022-09-26T08:03:14.724Z,99736.59
2022-09-26T08:05:43.312Z,99733.41
2022-09-26T08:08:10.107Z,99732.22
2022-09-26T08:11:03.479Z,99723.03
2022-09-26T08:13:36.853Z,99727.34
2022-09-26T08:16:25.925Z,99730.97
2022-09-26T08:18:56.193Z,99732.91
2022-09-26T08:21:24.959Z,99735.16
2022-09-26T08:23:55.910Z,99729.28
2022-09-26T08:26:32.006Z,99726.03
2022-09-26T08:29:19.793Z,99719.66
2022-09-26T08:31:50.438Z,99716.06
2022-09-26T08:34:22.667Z,99716.78
2022-09-26T08:37:14.854Z,99727.84
2022-09-26T08:40:07.927Z,99711.91
2022-09-26T08:43:06.964Z,99722.66
2022-09-26T08:46:25.742Z,99716.78
2022-09-26T08:49:29.472Z,99712.84
2022-09-26T08:52:00.979Z,99723.53
2022-09-26T08:54:36.819Z,99709.69
2022-09-26T08:57:34.077Z,99716.75
2022-09-26T09:00:10.283Z,99698.25
2022-09-26T09:03:16.187Z,99708.59
2022-09-26T09:05:48.838Z,99694.38
2022-09-26T09:08:23.529Z,99704.66
2022-09-26T09:11:16.576Z,99705.97
2022-09-26T09:13:55.565Z,99695.50
2022-09-26T09:16:46.877Z,99700.84
2022-09-26T09:19:41.768Z,99696.56
2022-09-26T09:22:59.892Z,99695.44
2022-09-26T09:25:47.342Z,99688.66
2022-09-26T09:28:23.572Z,99685.88
2022-09-26T09:30:57.255Z,99679.53
2022-09-26T09:34:00.667Z,99675.94
2022-09-26T09:36:59.048Z,99680.66
2022-09-26T09:39:50.658Z,99672.66
2022-09-26T09:42:48.485Z,99671.78
2022-09-26T09:45:18.749Z,99663.84
2022-09-26T09:47:46.151Z,99652.78
2022-09-26T09:50:44.486Z,99658.56
2022-09-26T09:53:38.909Z,99661.53
2022-09-26T09:56:24.554Z,99658.78
2022-09-26T09:59:07.033Z,99661.69
2022-09-26T10:01:58.930Z,99645.44
2022-09-26T10:04:44.079Z,99656.28
2022-09-26T10:07:12.406Z,99651.94
2022-09-26T10:09:46.292Z,99640.03
2022-09-26T10:12:35.481Z,99640.81
2022-09-26T10:15:32.433Z,99645.97
2022-09-26T10:18:24.734Z,99647.56
2022-09-26T10:21:19.010Z,99642.44
2022-09-26T10:23:49.534Z,99642.50
2022-09-26T10:26:35.330Z,99634.34
2022-09-26T10:29:26.013Z,99622.84
2022-09-26T10:32:00.593Z,99627.66
2022-09-26T10:34:30.952Z,99637.59
2022-09-26T10:37:21.394Z,99620.63
2022-09-26T10:40:12.488Z,99635.31
2022-09-26T10:42:40.618Z,99628.13
2022-09-26T10:45:16.002Z,99623.63
2022-09-26T10:48:05.656Z,99617.72
2022-09-26T10:51:02.091Z,99617.69
2022-09-26T10:53:40.175Z,99609.22
2022-09-26T10:56:15.223Z,99607.63
2022-09-26T10:58:46.543Z,99599.69
2022-09-26T11:01:30.645Z,99591.78
2022-09-26T11:04:12.117Z,99587.06
2022-09-26T11:07:27.396Z,99582.25
2022-09-26T11:10:14.847Z,99591.56
2022-09-26T11:13:16.275Z,99579.63
2022-09-26T11:16:12.937Z,99579.34
2022-09-26T11:18:44.919Z,99585.31
2022-09-26T11:21:29.505Z,99557.59
2022-09-26T11:24:05.174Z,99578.25
2022-09-26T11:26:38.786Z,99569.88
2022-09-26T11:29:41.989Z,99567.13
2022-09-26T11:32:28.366Z,99565.91
2022-09-26T11:35:03.232Z,99557.53
2022-09-26T11:38:27.281Z,99555.50
2022-09-26T11:41:38.838Z,99557.34
2022-09-26T11:44:34.752Z,99553.50
2022-09-26T11:47:37.049Z,99564.09
2022-09-26T11:50:23.925Z,99555.44
2022-09-26T11:53:26.873Z,99553.44
2022-09-26T11:56:07.980Z,99548.50
2022-09-26T11:58:50.302Z,99557.63
2022-09-26T12:01:35.526Z,99544.44
2022-09-26T12:04:54.333Z,99547.00
2022-09-26T12:07:38.130Z,99549.66
2022-09-26T12:10:25.402Z,99536.47
2022-09-26T12:13:14.294Z,99532.66
2022-09-26T12:16:03.132Z,99546.13
2022-09-26T12:18:43.643Z,99535.03
2022-09-26T12:22:04.642Z,99528.88
2022-09-26T12:25:00.635Z,99526.53
2022-09-26T12:27:43.513Z,99516.72
2022-09-26T12:30:15.838Z,99515.13
2022-09-26T12:33:04.636Z,99517.84
2022-09-26T12:35:45.373Z,99509.50
2022-09-26T12:38:37.184Z,99512.53
2022-09-26T12:41:07.016Z,99508.84
2022-09-26T12:43:46.433Z,99506.53
2022-09-26T12:46:22.569Z,99502.50
2022-09-26T12:48:59.223Z,99494.13
2022-09-26T12:51:41.218Z,99498.50
2022-09-26T12:54:34.410Z,99497.56
2022-09-26T12:57:38.530Z,99503.50
2022-09-26T13:00:10.525Z,99502.50
2022-09-26T13:02:56.035Z,99505.53
2022-09-26T13:05:54.980Z,99497.88
2022-09-26T13:08:24.992Z,99496.50
2022-09-26T13:11:04.154Z,99498.25
2022-09-26T13:13:33.574Z,99495.75
2022-09-26T13:16:04.180Z,99492.84
2022-09-26T13:18:40.023Z,99493.56
2022-09-26T13:21:12.266Z,99501.53
2022-09-26T13:23:48.702Z,99491.84
2022-09-26T13:26:26.228Z,99485.38
2022-09-26T13:29:17.161Z,99478.91
2022-09-26T13:31:55.431Z,99487.22
2022-09-26T13:34:38.121Z,99481.34
2022-09-26T13:37:14.884Z,99476.28
2022-09-26T13:40:03.008Z,99487.56
2022-09-26T13:42:44.365Z,99482.19
2022-09-26T13:45:29.300Z,99480.97
2022-09-26T13:48:27.654Z,99475.53
2022-09-26T13:51:10.735Z,99484.56
2022-09-26T13:53:56.103Z,99484.84
2022-09-26T13:56:41.537Z,99488.63
2022-09-26T13:59:11.356Z,99480.94
2022-09-26T14:01:42.523Z,99483.78
2022-09-26T14:04:37.323Z,99477.78
2022-09-26T14:07:28.763Z,99477.22
2022-09-26T14:10:05.210Z,99477.38
2022-09-26T14:12:51.152Z,99476.66
2022-09-26T14:15:40.766Z,99470.97
2022-09-26T14:18:12.572Z,99462.47
2022-09-26T14:21:16.201Z,99467.34
2022-09-26T14:23:48.858Z,99463.34
2022-09-26T14:26:21.308Z,99462.75
2022-09-26T14:28:55.910Z,99456.31
2022-09-26T14:31:26.213Z,99458.47
2022-09-26T14:34:27.662Z,99462.97
2022-09-26T14:36:58.568Z,99471.25
2022-09-26T14:39:33.982Z,99475.97
2022-09-26T14:42:33.953Z,99470.31
2022-09-26T14:45:18.796Z,99461.69
2022-09-26T14:48:01.353Z,99460.91
2022-09-26T14:50:36.791Z,99451.38
2022-09-26T14:53:19.086Z,99456.22
2022-09-26T14:56:06.185Z,99446.09
2022-09-26T14:58:40.064Z,99442.81
2022-09-26T15:01:18.062Z,99440.00
2022-09-26T15:04:04.962Z,99450.13
2022-09-26T15:06:43.775Z,99447.28
2022-09-26T15:09:18.529Z,99450.25
2022-09-26T15:11:51.496Z,99450.38
2022-09-26T15:15:00.048Z,99447.56
2022-09-26T15:17:35.103Z,99448.84
2022-09-26T15:20:08.030Z,99458.22
2022-09-26T15:22:35.480Z,99447.88
2022-09-26T15:25:22.942Z,99454.91
2022-09-26T15:27:54.142Z,99456.78
2022-09-26T15:30:32.462Z,99450.06
2022-09-26T15:33:04.159Z,99449.78
2022-09-26T15:35:32.468Z,99450.13
2022-09-26T15:38:01.601Z,99449.16
2022-09-26T15:40:32.140Z,99448.91
2022-09-26T15:43:09.821Z,99441.06
2022-09-26T15:45:58.494Z,99440.56
2022-09-26T15:48:25.711Z,99429.63
2022-09-26T15:51:20.350Z,99432.97
2022-09-26T15:53:55.942Z,99443.94
2022-09-26T15:56:28.314Z,99447.38
2022-09-26T15:59:01.306Z,99446.56
2022-09-26T16:01:30.879Z,99436.31
2022-09-26T16:04:02.645Z,99442.72
2022-09-26T16:06:39.968Z,99438.13
2022-09-26T16:09:32.443Z,99434.16
2022-09-26T16:12:05.743Z,99445.44
2022-09-26T16:14:41.348Z,99442.38
2022-09-26T16:17:23.792Z,99445.66
2022-09-26T16:19:58.903Z,99450.63
2022-09-26T16:22:39.317Z,99455.50
2022-09-26T16:25:52.597Z,99450.13
2022-09-26T16:28:22.828Z,99450.44
2022-09-26T16:30:58.757Z,99443.94
2022-09-26T16:33:34.394Z,99450.94
2022-09-26T16:36:15.158Z,99450.69
2022-09-26T16:38:42.231Z,99446.84
2022-09-26T16:41:48.979Z,99444.56
2022-09-26T16:44:27.399Z,99445.75
2022-09-26T16:46:59.113Z,99434.06
2022-09-26T16:49:48.417Z,99438.97
2022-09-26T16:52:34.872Z,99436.00
2022-09-26T16:55:06.115Z,99439.75
2022-09-26T16:57:38.801Z,99434.69
2022-09-26T17:00:34.389Z,99431.59
2022-09-26T17:03:02.719Z,99439.63
2022-09-26T17:05:29.877Z,99437.31
2022-09-26T17:07:57.634Z,99438.53
2022-09-26T17:10:25.554Z,99438.53
2022-09-26T17:12:53.349Z,99441.59
2022-09-26T17:15:27.392Z,99430.88
2022-09-26T17:17:55.121Z,99446.72
2022-09-26T17:20:22.468Z,99447.19
2022-09-26T17:22:49.919Z,99450.91
2022-09-26T17:25:18.319Z,99437.53
2022-09-26T17:27:50.075Z,99450.22
2022-09-26T17:30:19.466Z,99454.19
2022-09-26T17:32:52.458Z,99454.66
2022-09-26T17:35:28.170Z,99461.56
2022-09-26T17:37:55.942Z,99460.06
2022-09-26T17:40:26.747Z,99462.19
2022-09-26T17:42:55.722Z,99459.91
2022-09-26T17:45:30.554Z,99453.25
2022-09-26T17:48:02.447Z,99443.78
2022-09-26T17:50:31.709Z,99453.31
2022-09-26T17:53:02.414Z,99453.50
2022-09-26T17:55:31.028Z,99461.50
2022-09-26T17:57:58.508Z,99452.09
2022-09-26T18:00:28.182Z,99454.53
2022-09-26T18:02:59.724Z,99449.81
2022-09-26T18:05:36.843Z,99455.75
2022-09-26T18:08:14.966Z,99451.03
2022-09-26T18:10:48.203Z,99447.16
2022-09-26T18:13:25.214Z,99448.75
2022-09-26T18:15:57.955Z,99449.56
2022-09-26T18:18:28.596Z,99447.09
2022-09-26T18:20:57.468Z,99451.44
2022-09-26T18:23:35.718Z,99454.97
2022-09-26T18:26:03.095Z,99457.72
2022-09-26T18:28:30.505Z,99458.13
2022-09-26T18:31:00.821Z,99465.97
2022-09-26T18:33:29.098Z,99475.06
2022-09-26T18:35:57.922Z,99468.72
2022-09-26T18:38:25.122Z,99475.06
2022-09-26T18:40:58.844Z,99472.28
2022-09-26T18:43:39.071Z,99491.69
2022-09-26T18:46:13.402Z,99483.66
2022-09-26T18:48:41.859Z,99478.47
2022-09-26T18:51:10.805Z,99474.09
2022-09-26T18:53:40.168Z,99475.03
2022-09-26T18:56:26.918Z,99464.19
2022-09-26T18:58:54.026Z,99465.91
2022-09-26T19:01:23.941Z,99465.50
2022-09-26T19:03:51.597Z,99469.09
2022-09-26T19:06:23.256Z,99477.06
2022-09-26T19:08:56.862Z,99485.78
2022-09-26T19:11:25.469Z,99482.59
2022-09-26T19:13:55.537Z,99491.72
2022-09-26T19:16:23.910Z,99481.78
2022-09-26T19:18:51.688Z,99482.25
2022-09-26T19:21:53.461Z,99486.66
2022-09-26T19:24:31.840Z,99483.97
2022-09-26T19:27:06.288Z,99482.84
2022-09-26T19:29:45.034Z,99477.78
2022-09-26T19:32:20.703Z,99476.22
2022-09-26T19:34:55.602Z,99474.22
2022-09-26T19:37:23.099Z,99475.00
2022-09-26T19:39:50.201Z,99467.50
2022-09-26T19:42:17.325Z,99473.06
2022-09-26T19:44:44.267Z,99476.97
2022-09-26T19:47:23.662Z,99473.78
2022-09-26T19:49:52.922Z,99463.13
2022-09-26T19:52:20.882Z,99473.88
2022-09-26T19:54:48.933Z,99469.16
2022-09-26T19:57:17.645Z,99473.13
2022-09-26T19:59:45.795Z,99465.97
2022-09-26T20:02:16.879Z,99470.38
2022-09-26T20:04:44.907Z,99469.59
2022-09-26T20:07:17.420Z,99480.19
2022-09-26T20:09:44.780Z,99468.72
2022-09-26T20:12:12.242Z,99471.19
2022-09-26T20:14:39.245Z,99476.63
2022-09-26T20:17:17.963Z,99475.91
2022-09-26T20:19:48.672Z,99479.06
2022-09-26T20:22:19.092Z,99474.69
2022-09-26T20:24:48.178Z,99469.88
2022-09-26T20:27:19.499Z,99466.31
2022-09-26T20:30:07.091Z,99473.06
2022-09-26T20:32:34.038Z,99480.91
2022-09-26T20:35:01.054Z,99469.44
2022-09-26T20:37:31.919Z,99476.94
2022-09-26T20:40:07.197Z,99476.97
2022-09-26T20:42:37.964Z,99472.25
2022-09-26T20:45:05.142Z,99479.81
2022-09-26T20:47:32.713Z,99484.13
2022-09-26T20:50:02.209Z,99476.25
2022-09-26T20:52:30.270Z,99489.38
2022-09-26T20:54:58.456Z,99472.09
2022-09-26T20:57:25.518Z,99467.81
2022-09-26T20:59:52.650Z,99470.63
2022-09-26T21:02:29.081Z,99465.50
2022-09-26T21:04:58.010Z,99480.88
2022-09-26T21:07:25.199Z,99480.47
2022-09-26T21:09:52.367Z,99469.00
2022-09-26T21:12:19.365Z,99469.41
2022-09-26T21:14:46.520Z,99458.75
2022-09-26T21:17:28.647Z,99471.41
2022-09-26T21:19:56.052Z,99475.75
2022-09-26T21:23:01.772Z,99478.91
2022-09-26T21:25:31.097Z,99479.72
2022-09-26T21:28:02.231Z,99475.41
2022-09-26T21:30:30.679Z,99481.75
2022-09-26T21:32:59.795Z,99471.03
2022-09-26T21:35:32.649Z,99468.66
2022-09-26T21:38:01.161Z,99476.59
2022-09-26T21:40:33.137Z,99475.00
2022-09-26T21:43:24.687Z,99471.84
2022-09-26T21:45:52.311Z,99473.44
2022-09-26T21:48:19.212Z,99472.22
2022-09-26T21:50:56.781Z,99471.81
2022-09-26T21:53:57.009Z,99474.16
2022-09-26T21:56:28.977Z,99464.28
2022-09-26T21:58:57.188Z,99469.44
2022-09-26T22:01:24.493Z,99463.13
2022-09-26T22:03:51.846Z,99465.16
2022-09-26T22:06:19.521Z,99467.50
2022-09-26T22:08:46.330Z,99466.72
2022-09-26T22:11:14.472Z,99459.63
2022-09-26T22:13:41.517Z,99469.09
2022-09-26T22:16:13.128Z,99471.84
2022-09-26T22:18:40.970Z,99464.75
2022-09-26T22:21:09.749Z,99461.19
2022-09-26T22:23:37.895Z,99465.97
2022-09-26T22:26:05.882Z,99452.53
2022-09-26T22:28:32.860Z,99456.13
2022-09-26T22:31:05.047Z,99463.69
2022-09-26T22:33:32.715Z,99457.81
2022-09-26T22:35:59.721Z,99461.78
2022-09-26T22:38:26.900Z,99448.00
2022-09-26T22:41:03.385Z,99450.78
2022-09-26T22:43:31.788Z,99448.78
2022-09-26T22:46:13.138Z,99451.97
2022-09-26T22:48:42.554Z,99452.75
2022-09-26T22:51:10.142Z,99451.19
2022-09-26T22:53:39.122Z,99453.56
2022-09-26T22:56:08.256Z,99449.22
2022-09-26T22:58:39.744Z,99446.09
2022-09-26T23:01:09.094Z,99455.56
2022-09-26T23:03:36.503Z,99446.13
2022-09-26T23:06:04.596Z,99454.41
2022-09-26T23:08:35.765Z,99450.84
2022-09-26T23:11:03.869Z,99452.50
2022-09-26T23:13:32.641Z,99450.13
2022-09-26T23:16:08.017Z,99460.00
2022-09-26T23:18:36.064Z,99458.75
2022-09-26T23:21:14.942Z,99456.38
2022-09-26T23:23:43.950Z,99464.63
2022-09-26T23:26:24.628Z,99454.72
2022-09-26T23:28:53.174Z,99452.34
2022-09-26T23:31:20.709Z,99451.53
2022-09-26T23:33:47.578Z,99446.00
2022-09-26T23:36:14.454Z,99450.34
2022-09-26T23:38:42.192Z,99443.59
2022-09-26T23:41:11.000Z,99440.00
2022-09-26T23:43:38.674Z,99450.69
2022-09-26T23:46:06.463Z,99446.00
2022-09-26T23:48:33.382Z,99448.03
2022-09-26T23:51:00.649Z,99451.19
2022-09-26T23:53:27.478Z,99444.50
2022-09-26T23:56:03.648Z,99452.44
2022-09-26T23:58:30.684Z,99445.31
